createdAt,value
2022-08-09T00:02:28.953Z,20.54
2022-08-09T00:05:03.291Z,20.48
2022-08-09T00:07:46.083Z,20.44
2022-08-09T00:10:17.766Z,20.31
2022-08-09T00:12:45.964Z,20.37
2022-08-09T00:15:13.866Z,20.39
2022-08-09T00:18:05.513Z,20.41
2022-08-09T00:20:31.627Z,20.36
2022-08-09T00:23:08.317Z,20.34
2022-08-09T00:25:51.854Z,20.30
2022-08-09T00:28:20.129Z,20.32
2022-08-09T00:30:50.216Z,20.34
2022-08-09T00:33:17.814Z,20.34
2022-08-09T00:35:47.139Z,20.40
2022-08-09T00:38:15.732Z,20.32
2022-08-09T00:40:52.681Z,20.32
2022-08-09T00:44:16.132Z,20.23
2022-08-09T00:46:09.489Z,20.20
2022-08-09T00:48:38.114Z,20.12
2022-08-09T00:51:11.878Z,20.08
2022-08-09T00:53:40.680Z,20.02
2022-08-09T00:56:09.757Z,20.03
2022-08-09T00:58:37.765Z,19.95
2022-08-09T01:01:22.840Z,19.92
2022-08-09T01:03:54.991Z,19.96
2022-08-09T01:06:53.269Z,19.85
2022-08-09T01:09:36.444Z,19.83
2022-08-09T01:12:12.644Z,19.85
2022-08-09T01:14:46.502Z,19.79
2022-08-09T01:17:25.975Z,19.78
2022-08-09T01:20:02.538Z,19.75
2022-08-09T01:23:04.338Z,19.69
2022-08-09T01:26:10.104Z,19.65
2022-08-09T01:28:46.816Z,19.63
2022-08-09T01:32:28.021Z,19.58
2022-08-09T01:34:10.614Z,19.65
2022-08-09T01:36:41.931Z,19.65
2022-08-09T01:39:10.549Z,19.60
2022-08-09T01:41:55.952Z,19.53
2022-08-09T01:44:30.896Z,19.54
2022-08-09T01:47:00.626Z,19.53
2022-08-09T01:49:38.896Z,19.58
2022-08-09T01:52:14.708Z,19.50
2022-08-09T01:54:45.278Z,19.42
2022-08-09T01:57:16.173Z,19.31
2022-08-09T01:59:51.831Z,19.25
2022-08-09T02:02:29.924Z,19.17
2022-08-09T02:05:05.269Z,19.16
2022-08-09T02:08:39.946Z,19.12
2022-08-09T02:10:29.702Z,19.11
2022-08-09T02:12:59.268Z,19.04
2022-08-09T02:15:36.267Z,18.93
2022-08-09T02:18:20.622Z,18.84
2022-08-09T02:20:55.580Z,18.85
2022-08-09T02:23:31.968Z,18.87
2022-08-09T02:26:25.396Z,18.83
2022-08-09T02:28:59.541Z,18.94
2022-08-09T02:31:35.603Z,18.89
2022-08-09T02:34:12.944Z,18.84
2022-08-09T02:36:44.259Z,18.80
2022-08-09T02:39:39.664Z,18.74
2022-08-09T02:42:12.901Z,18.67
2022-08-09T02:44:45.365Z,18.74
2022-08-09T02:47:19.532Z,18.65
2022-08-09T02:50:01.869Z,18.66
2022-08-09T02:52:39.443Z,18.57
2022-08-09T02:55:19.994Z,18.51
2022-08-09T02:58:00.115Z,18.45
2022-08-09T03:00:39.493Z,18.46
2022-08-09T03:04:12.612Z,18.37
2022-08-09T03:06:17.933Z,18.40
2022-08-09T03:08:47.598Z,18.31
2022-08-09T03:11:29.762Z,18.33
2022-08-09T03:14:10.143Z,18.25
2022-08-09T03:16:45.248Z,18.26
2022-08-09T03:19:57.618Z,18.14
2022-08-09T03:22:12.283Z,18.18
2022-08-09T03:25:05.818Z,18.33
2022-08-09T03:27:44.744Z,18.30
2022-08-09T03:30:14.408Z,18.31
2022-08-09T03:32:59.573Z,18.26
2022-08-09T03:36:11.813Z,18.26
2022-08-09T03:38:29.048Z,18.22
2022-08-09T03:40:58.027Z,18.26
2022-08-09T03:43:32.147Z,18.29
2022-08-09T03:46:03.911Z,18.26
2022-08-09T03:48:52.170Z,18.32
2022-08-09T03:51:57.172Z,18.39
2022-08-09T03:54:11.672Z,18.42
2022-08-09T03:56:41.296Z,18.34
2022-08-09T03:59:17.114Z,18.36
2022-08-09T04:01:59.109Z,18.41
2022-08-09T04:04:36.076Z,18.37
2022-08-09T04:07:05.643Z,18.29
2022-08-09T04:09:48.375Z,18.33
2022-08-09T04:12:41.336Z,18.36
2022-08-09T04:15:29.371Z,18.31
2022-08-09T04:18:00.573Z,18.34
2022-08-09T04:20:28.904Z,18.32
2022-08-09T04:22:58.190Z,18.29
2022-08-09T04:25:26.925Z,18.28
2022-08-09T04:27:59.914Z,18.21
2022-08-09T04:30:30.165Z,18.17
2022-08-09T04:32:59.900Z,18.06
2022-08-09T04:35:29.253Z,18.12
2022-08-09T04:38:03.684Z,18.10
2022-08-09T04:40:45.537Z,18.03
2022-08-09T04:43:13.786Z,18.11
2022-08-09T04:45:52.891Z,18.15
2022-08-09T04:48:21.765Z,18.15
2022-08-09T04:50:51.589Z,18.13
2022-08-09T04:53:20.491Z,18.11
2022-08-09T04:55:58.938Z,18.11
2022-08-09T04:58:27.531Z,18.24
2022-08-09T05:00:55.426Z,18.28
2022-08-09T05:03:40.344Z,18.37
2022-08-09T05:06:11.558Z,18.35
2022-08-09T05:08:43.884Z,18.40
2022-08-09T05:11:15.330Z,18.47
2022-08-09T05:13:43.370Z,18.48
2022-08-09T05:16:11.197Z,18.50
2022-08-09T05:18:58.337Z,18.52
2022-08-09T05:21:29.934Z,18.56
2022-08-09T05:24:02.170Z,18.60
2022-08-09T05:26:36.592Z,18.68
2022-08-09T05:29:17.664Z,18.74
2022-08-09T05:31:47.556Z,18.74
2022-08-09T05:34:20.149Z,18.80
2022-08-09T05:36:47.671Z,18.82
2022-08-09T05:39:28.218Z,18.90
2022-08-09T05:42:01.261Z,18.84
2022-08-09T05:44:32.711Z,18.91
2022-08-09T05:47:05.434Z,18.94
2022-08-09T05:50:23.578Z,18.92
2022-08-09T05:52:21.233Z,19.01
2022-08-09T05:54:53.794Z,19.03
2022-08-09T05:57:25.162Z,19.15
2022-08-09T06:00:13.054Z,19.21
2022-08-09T06:02:46.526Z,19.25
2022-08-09T06:05:14.425Z,19.31
2022-08-09T06:07:43.807Z,19.31
2022-08-09T06:10:18.646Z,19.35
2022-08-09T06:12:50.404Z,19.40
2022-08-09T06:15:30.870Z,19.39
2022-08-09T06:17:59.472Z,19.42
2022-08-09T06:20:27.222Z,19.50
2022-08-09T06:22:57.902Z,19.59
2022-08-09T06:25:28.372Z,19.70
2022-08-09T06:27:55.913Z,19.72
2022-08-09T06:30:23.681Z,19.74
2022-08-09T06:32:59.971Z,19.80
2022-08-09T06:35:57.396Z,19.84
2022-08-09T06:38:32.178Z,19.84
2022-08-09T06:41:18.060Z,19.87
2022-08-09T06:43:47.167Z,19.96
2022-08-09T06:46:40.324Z,19.99
2022-08-09T06:49:02.586Z,20.08
2022-08-09T06:51:30.179Z,20.16
2022-08-09T06:54:00.900Z,20.28
2022-08-09T06:56:30.943Z,20.25
2022-08-09T07:00:57.405Z,20.34
2022-08-09T07:02:03.570Z,20.44
2022-08-09T07:04:32.958Z,20.51
2022-08-09T07:07:01.157Z,20.50
2022-08-09T07:09:57.064Z,20.60
2022-08-09T07:12:22.182Z,20.64
2022-08-09T07:16:36.055Z,20.68
2022-08-09T07:18:01.942Z,20.74
2022-08-09T07:20:30.174Z,20.73
2022-08-09T07:22:59.282Z,20.77
2022-08-09T07:25:27.650Z,20.65
2022-08-09T07:27:57.981Z,20.63
2022-08-09T07:30:33.053Z,20.75
2022-08-09T07:33:00.823Z,20.78
2022-08-09T07:35:28.837Z,20.92
2022-08-09T07:38:07.198Z,20.98
2022-08-09T07:41:00.493Z,21.07
2022-08-09T07:43:28.974Z,21.12
2022-08-09T07:45:56.852Z,21.21
2022-08-09T07:48:31.639Z,21.31
2022-08-09T07:51:09.865Z,21.29
2022-08-09T07:54:05.240Z,21.42
2022-08-09T07:56:36.047Z,21.46
2022-08-09T07:59:12.577Z,21.57
2022-08-09T08:01:43.833Z,21.61
2022-08-09T08:04:21.190Z,21.54
2022-08-09T08:07:00.171Z,21.39
2022-08-09T08:09:38.418Z,21.56
2022-08-09T08:12:28.148Z,21.66
2022-08-09T08:14:59.579Z,21.72
2022-08-09T08:17:52.276Z,21.67
2022-08-09T08:20:15.559Z,21.72
2022-08-09T08:22:44.381Z,21.82
2022-08-09T08:25:16.443Z,21.98
2022-08-09T08:27:47.097Z,22.03
2022-08-09T08:30:19.274Z,22.07
2022-08-09T08:32:53.602Z,22.15
2022-08-09T08:35:22.889Z,22.23
2022-08-09T08:38:02.100Z,22.26
2022-08-09T08:40:33.558Z,22.41
2022-08-09T08:43:02.180Z,22.49
2022-08-09T08:45:37.440Z,22.65
2022-08-09T08:48:06.528Z,22.72
2022-08-09T08:50:38.167Z,22.78
2022-08-09T08:53:06.615Z,22.90
2022-08-09T08:55:43.699Z,22.90
2022-08-09T08:58:11.905Z,22.97
2022-08-09T09:00:42.698Z,22.98
2022-08-09T09:03:22.720Z,22.90
2022-08-09T09:06:03.043Z,22.95
2022-08-09T09:08:37.812Z,23.07
2022-08-09T09:11:09.105Z,23.29
2022-08-09T09:13:56.307Z,23.48
2022-08-09T09:16:29.858Z,23.55
2022-08-09T09:22:08.006Z,23.77
2022-08-09T09:24:43.213Z,23.82
2022-08-09T09:28:04.575Z,23.89
2022-08-09T09:30:19.264Z,24.06
2022-08-09T09:33:16.920Z,24.14
2022-08-09T09:36:01.723Z,24.15
2022-08-09T09:38:42.940Z,24.23
2022-08-09T09:41:10.849Z,24.46
2022-08-09T09:43:41.481Z,24.64
2022-08-09T09:46:45.967Z,24.54
2022-08-09T09:49:23.486Z,24.68
2022-08-09T09:52:16.334Z,24.88
2022-08-09T09:55:16.435Z,24.81
2022-08-09T09:58:00.561Z,24.68
2022-08-09T10:00:29.614Z,24.85
2022-08-09T10:02:57.692Z,25.06
2022-08-09T10:06:00.778Z,25.22
2022-08-09T10:08:27.955Z,25.39
2022-08-09T10:10:56.332Z,25.54
2022-08-09T10:13:24.803Z,25.64
2022-08-09T10:16:56.756Z,25.68
2022-08-09T10:19:01.027Z,25.89
2022-08-09T10:21:31.182Z,25.87
2022-08-09T10:24:03.856Z,25.97
2022-08-09T10:26:32.260Z,26.11
2022-08-09T10:29:36.087Z,26.10
2022-08-09T10:34:36.437Z,26.14
2022-08-09T10:37:09.631Z,26.26
2022-08-09T10:39:40.940Z,26.42
2022-08-09T10:42:18.511Z,26.54
2022-08-09T10:44:49.028Z,26.46
2022-08-09T10:48:16.477Z,26.63
2022-08-09T10:50:31.475Z,26.77
2022-08-09T10:53:21.264Z,26.68
2022-08-09T10:55:58.013Z,26.86
2022-08-09T10:58:33.472Z,26.97
2022-08-09T11:03:06.689Z,26.82
2022-08-09T11:04:19.961Z,26.90
2022-08-09T11:07:57.712Z,27.21
2022-08-09T11:10:55.958Z,27.36
2022-08-09T11:13:50.174Z,27.31
2022-08-09T11:16:38.041Z,27.49
2022-08-09T11:19:08.080Z,27.59
2022-08-09T11:21:56.914Z,27.80
2022-08-09T11:25:04.488Z,27.74
2022-08-09T11:28:05.326Z,27.87
2022-08-09T11:30:34.536Z,27.87
2022-08-09T11:33:05.586Z,28.03
2022-08-09T11:35:49.056Z,28.07
2022-08-09T11:38:19.802Z,28.25
2022-08-09T11:40:52.853Z,28.29
2022-08-09T11:43:42.803Z,28.25
2022-08-09T11:46:11.041Z,28.31
2022-08-09T11:48:49.012Z,28.43
2022-08-09T11:52:49.482Z,28.50
2022-08-09T11:54:28.581Z,28.39
2022-08-09T11:58:00.135Z,28.42
2022-08-09T12:00:28.143Z,28.54
2022-08-09T12:02:56.395Z,28.60
2022-08-09T12:05:37.136Z,28.56
2022-08-09T12:08:12.494Z,28.77
2022-08-09T12:10:50.360Z,28.70
2022-08-09T12:14:11.051Z,28.85
2022-08-09T12:16:37.733Z,28.94
2022-08-09T12:19:09.233Z,29.08
2022-08-09T12:21:50.887Z,29.30
2022-08-09T12:24:23.960Z,29.32
2022-08-09T12:29:10.981Z,29.41
2022-08-09T12:30:00.120Z,29.27
2022-08-09T12:32:33.983Z,29.17
2022-08-09T12:35:04.615Z,29.40
2022-08-09T12:37:33.515Z,29.55
2022-08-09T12:40:12.803Z,29.15
2022-08-09T12:42:44.561Z,29.50
2022-08-09T12:45:33.738Z,29.63
2022-08-09T12:48:02.023Z,29.84
2022-08-09T12:50:29.637Z,29.75
2022-08-09T12:53:17.390Z,29.42
2022-08-09T12:56:15.950Z,29.15
2022-08-09T12:58:34.192Z,29.13
2022-08-09T13:01:28.370Z,29.46
2022-08-09T13:04:01.857Z,29.70
2022-08-09T13:06:34.639Z,29.80
2022-08-09T13:09:07.475Z,29.86
2022-08-09T13:11:39.598Z,29.96
2022-08-09T13:14:42.753Z,30.09
2022-08-09T13:17:01.123Z,30.08
2022-08-09T13:20:09.980Z,30.14
2022-08-09T13:22:35.899Z,30.00
2022-08-09T13:25:12.180Z,30.07
2022-08-09T13:27:54.550Z,30.07
2022-08-09T13:30:51.176Z,30.27
2022-08-09T13:33:22.456Z,30.52
2022-08-09T13:36:24.420Z,30.43
2022-08-09T13:38:56.687Z,30.45
2022-08-09T13:41:57.993Z,30.47
2022-08-09T13:44:16.993Z,30.63
2022-08-09T13:47:27.536Z,30.74
2022-08-09T13:49:39.506Z,30.92
2022-08-09T13:52:23.222Z,30.75
2022-08-09T13:54:59.047Z,30.42
2022-08-09T13:57:36.890Z,30.51
2022-08-09T14:00:12.254Z,30.62
2022-08-09T14:02:42.676Z,30.67
2022-08-09T14:06:00.291Z,30.69
2022-08-09T14:08:17.880Z,30.65
2022-08-09T14:10:52.005Z,30.54
2022-08-09T14:14:16.060Z,30.69
2022-08-09T14:16:12.407Z,30.78
2022-08-09T14:18:45.429Z,30.59
2022-08-09T14:21:18.273Z,30.73
2022-08-09T14:23:54.687Z,30.42
2022-08-09T14:26:25.337Z,30.51
2022-08-09T14:28:58.097Z,30.69
2022-08-09T14:31:36.329Z,30.86
2022-08-09T14:34:14.181Z,30.67
2022-08-09T14:36:45.459Z,30.71
2022-08-09T14:39:17.965Z,30.97
2022-08-09T14:41:45.688Z,30.69
2022-08-09T14:44:15.335Z,30.78
2022-08-09T14:47:04.692Z,30.75
2022-08-09T14:49:34.647Z,30.85
2022-08-09T14:52:16.615Z,31.03
2022-08-09T14:54:46.576Z,31.05
2022-08-09T14:57:15.156Z,30.95
2022-08-09T14:59:48.132Z,30.90
2022-08-09T15:02:17.505Z,30.70
2022-08-09T15:04:49.411Z,30.67
2022-08-09T15:07:18.991Z,30.60
2022-08-09T15:10:07.822Z,30.78
2022-08-09T15:12:36.014Z,30.81
2022-08-09T15:15:04.028Z,30.86
2022-08-09T15:17:41.965Z,30.95
2022-08-09T15:20:15.180Z,30.74
2022-08-09T15:24:01.275Z,30.78
2022-08-09T15:25:55.623Z,30.93
2022-08-09T15:28:26.407Z,30.80
2022-08-09T15:31:08.779Z,30.87
2022-08-09T15:34:15.436Z,30.94
2022-08-09T15:36:29.380Z,30.87
2022-08-09T15:38:58.086Z,30.71
2022-08-09T15:41:31.586Z,30.57
2022-08-09T15:44:00.016Z,30.69
2022-08-09T15:46:32.306Z,30.73
2022-08-09T15:49:20.977Z,30.58
2022-08-09T15:52:05.223Z,30.53
2022-08-09T15:54:46.427Z,30.29
2022-08-09T15:57:35.099Z,30.23
2022-08-09T16:00:07.430Z,30.30
2022-08-09T16:02:35.544Z,30.28
2022-08-09T16:05:04.425Z,30.40
2022-08-09T16:07:39.322Z,30.24
2022-08-09T16:10:11.365Z,30.19
2022-08-09T16:12:59.256Z,30.06
2022-08-09T16:16:04.505Z,29.96
2022-08-09T16:18:15.628Z,29.83
2022-08-09T16:20:43.329Z,29.63
2022-08-09T16:23:14.550Z,29.53
2022-08-09T16:25:49.677Z,29.42
2022-08-09T16:28:18.914Z,29.34
2022-08-09T16:30:54.085Z,29.18
2022-08-09T16:33:26.719Z,29.03
2022-08-09T16:35:58.464Z,28.93
2022-08-09T16:38:29.822Z,28.89
2022-08-09T16:40:57.878Z,28.73
2022-08-09T16:43:26.954Z,28.61
2022-08-09T16:45:55.177Z,28.65
2022-08-09T16:48:43.056Z,28.64
2022-08-09T16:51:14.351Z,28.61
2022-08-09T16:54:02.298Z,28.63
2022-08-09T16:56:31.312Z,28.36
2022-08-09T16:59:01.179Z,28.36
2022-08-09T17:01:34.062Z,28.28
2022-08-09T17:04:03.582Z,28.34
2022-08-09T17:06:33.455Z,28.32
2022-08-09T17:09:45.687Z,28.17
2022-08-09T17:11:52.414Z,28.19
2022-08-09T17:14:27.881Z,28.50
2022-08-09T17:16:56.683Z,28.64
2022-08-09T17:19:27.969Z,28.81
2022-08-09T17:22:15.336Z,29.06
2022-08-09T17:24:47.573Z,29.00
2022-08-09T17:27:22.871Z,29.09
2022-08-09T17:29:52.834Z,29.06
2022-08-09T17:32:35.058Z,28.82
2022-08-09T17:35:11.673Z,28.38
2022-08-09T17:38:02.468Z,28.17
2022-08-09T17:40:28.589Z,28.04
2022-08-09T17:43:03.125Z,28.07
2022-08-09T17:46:04.317Z,27.95
2022-08-09T17:48:35.042Z,27.97
2022-08-09T17:51:10.150Z,27.92
2022-08-09T17:53:48.235Z,27.86
2022-08-09T17:56:20.374Z,27.88
2022-08-09T17:58:48.155Z,27.83
2022-08-09T18:01:23.191Z,27.74
2022-08-09T18:03:51.266Z,27.48
2022-08-09T18:06:30.932Z,27.53
2022-08-09T18:09:01.910Z,27.51
2022-08-09T18:11:46.982Z,27.58
2022-08-09T18:14:20.032Z,27.48
2022-08-09T18:16:49.701Z,27.51
2022-08-09T18:20:56.143Z,27.42
2022-08-09T18:22:06.077Z,27.34
2022-08-09T18:24:40.944Z,27.32
2022-08-09T18:27:09.706Z,27.21
2022-08-09T18:30:41.929Z,27.24
2022-08-09T18:32:30.689Z,27.09
2022-08-09T18:34:58.358Z,27.03
2022-08-09T18:37:48.651Z,27.05
2022-08-09T18:40:14.583Z,27.06
2022-08-09T18:42:46.654Z,27.08
2022-08-09T18:45:21.625Z,27.01
2022-08-09T18:48:03.467Z,26.94
2022-08-09T18:50:33.707Z,26.95
2022-08-09T18:53:01.620Z,26.93
2022-08-09T18:55:56.586Z,26.90
2022-08-09T18:58:31.773Z,26.74
2022-08-09T19:01:00.668Z,26.76
2022-08-09T19:03:29.778Z,26.73
2022-08-09T19:06:17.311Z,26.60
2022-08-09T19:08:55.442Z,26.47
2022-08-09T19:11:37.617Z,26.48
2022-08-09T19:14:06.163Z,26.35
2022-08-09T19:16:36.517Z,26.38
2022-08-09T19:19:25.038Z,26.36
2022-08-09T19:22:04.643Z,26.36
2022-08-09T19:24:38.495Z,26.25
2022-08-09T19:27:22.293Z,26.23
2022-08-09T19:30:22.689Z,26.20
2022-08-09T19:32:37.838Z,26.13
2022-08-09T19:35:08.292Z,26.14
2022-08-09T19:37:52.810Z,26.11
2022-08-09T19:40:22.835Z,26.10
2022-08-09T19:42:51.076Z,26.02
2022-08-09T19:45:20.014Z,25.93
2022-08-09T19:47:48.141Z,25.90
2022-08-09T19:50:50.392Z,25.80
2022-08-09T19:53:05.000Z,25.73
2022-08-09T19:55:52.960Z,25.75
2022-08-09T19:58:29.791Z,25.74
2022-08-09T20:00:58.062Z,25.70
2022-08-09T20:04:17.100Z,25.68
2022-08-09T20:06:23.571Z,25.61
2022-08-09T20:08:56.840Z,25.63
2022-08-09T20:11:26.293Z,25.64
2022-08-09T20:13:54.809Z,25.53
2022-08-09T20:16:32.857Z,25.48
2022-08-09T20:19:42.162Z,25.48
2022-08-09T20:22:00.140Z,25.42
2022-08-09T20:24:32.069Z,25.45
2022-08-09T20:27:02.390Z,25.37
2022-08-09T20:29:37.818Z,25.29
2022-08-09T20:32:30.066Z,25.30
2022-08-09T20:34:54.199Z,25.21
2022-08-09T20:37:23.154Z,25.16
2022-08-09T20:40:15.919Z,25.15
2022-08-09T20:42:38.634Z,24.92
2022-08-09T20:46:01.974Z,24.87
2022-08-09T20:47:54.933Z,24.76
2022-08-09T20:50:47.620Z,24.76
2022-08-09T20:53:35.627Z,24.73
2022-08-09T20:56:01.872Z,24.57
2022-08-09T20:58:32.662Z,24.40
2022-08-09T21:01:13.722Z,24.38
2022-08-09T21:04:08.441Z,24.13
2022-08-09T21:06:36.252Z,24.08
2022-08-09T21:09:05.292Z,23.86
2022-08-09T21:14:31.286Z,23.67
2022-08-09T21:17:00.309Z,23.71
2022-08-09T21:20:18.436Z,23.67
2022-08-09T21:22:36.021Z,23.75
2022-08-09T21:25:22.802Z,23.65
2022-08-09T21:27:53.397Z,23.56
2022-08-09T21:30:23.803Z,23.69
2022-08-09T21:32:53.062Z,23.55
2022-08-09T21:35:21.577Z,23.41
2022-08-09T21:37:59.950Z,23.38
2022-08-09T21:40:32.677Z,23.21
2022-08-09T21:43:01.112Z,23.24
2022-08-09T21:45:30.537Z,23.12
2022-08-09T21:47:58.548Z,23.10
2022-08-09T21:50:38.581Z,23.02
2022-08-09T21:53:19.824Z,23.07
2022-08-09T21:55:57.171Z,23.05
2022-08-09T21:58:30.938Z,22.92
2022-08-09T22:00:59.433Z,22.91
2022-08-09T22:03:28.299Z,22.85
2022-08-09T22:05:57.863Z,22.88
2022-08-09T22:08:26.522Z,22.77
2022-08-09T22:11:00.796Z,22.78
2022-08-09T22:13:44.680Z,22.80
2022-08-09T22:16:12.640Z,22.79
2022-08-09T22:18:53.503Z,22.82
2022-08-09T22:21:24.083Z,22.83
2022-08-09T22:23:59.527Z,22.86
2022-08-09T22:26:34.814Z,22.83
2022-08-09T22:29:09.337Z,22.82
2022-08-09T22:31:38.590Z,22.88
2022-08-09T22:34:18.193Z,22.81
2022-08-09T22:36:53.049Z,22.71
2022-08-09T22:39:56.091Z,22.71
2022-08-09T22:42:20.919Z,22.82
2022-08-09T22:45:00.328Z,22.78
2022-08-09T22:48:14.266Z,22.76
2022-08-09T22:50:26.626Z,22.78
2022-08-09T22:52:54.874Z,22.67
2022-08-09T22:55:33.739Z,22.53
2022-08-09T22:58:30.719Z,22.52
2022-08-09T23:01:03.481Z,22.48
2022-08-09T23:04:03.421Z,22.39
2022-08-09T23:06:35.512Z,22.30
2022-08-09T23:09:04.685Z,22.34
2022-08-09T23:11:32.272Z,22.30
2022-08-09T23:13:59.850Z,22.25
2022-08-09T23:16:28.755Z,22.17
2022-08-09T23:18:56.323Z,22.12
2022-08-09T23:21:26.090Z,22.04
2022-08-09T23:24:05.098Z,21.99
2022-08-09T23:26:33.478Z,21.89
2022-08-09T23:29:01.138Z,21.98
2022-08-09T23:31:30.096Z,21.88
2022-08-09T23:33:57.673Z,21.84
2022-08-09T23:36:25.432Z,21.81
2022-08-09T23:38:53.016Z,21.85
2022-08-09T23:41:28.692Z,21.78
2022-08-09T23:43:57.641Z,21.67
2022-08-09T23:46:25.199Z,21.75
2022-08-09T23:48:54.143Z,21.63
2022-08-09T23:51:21.694Z,21.67
2022-08-09T23:53:50.427Z,21.60
2022-08-09T23:56:51.918Z,21.68
2022-08-09T23:59:07.615Z,21.68
